createdAt,value
2019-01-31T00:00:30.007Z,0.1
2019-01-31T00:01:19.525Z,0.2
2019-01-31T00:02:09.857Z,0.2
2019-01-31T00:03:00.172Z,0.2
2019-01-31T00:03:50.225Z,0.2
2019-01-31T00:04:40.019Z,0.2
2019-01-31T00:05:30.072Z,0.2
2019-01-31T00:06:20.407Z,0.2
2019-01-31T00:07:10.267Z,0.2
2019-01-31T00:08:00.250Z,0.2
2019-01-31T00:08:50.026Z,0.2
2019-01-31T00:09:40.737Z,0.2
2019-01-31T00:10:30.703Z,0.2
2019-01-31T00:11:20.745Z,0.3
2019-01-31T00:12:10.831Z,0.3
2019-01-31T00:13:00.871Z,0.3
2019-01-31T00:13:50.641Z,0.3
2019-01-31T00:14:40.983Z,0.2
2019-01-31T00:15:31.055Z,0.3
2019-01-31T00:16:20.834Z,0.3
2019-01-31T00:17:10.039Z,0.3
2019-01-31T00:18:01.216Z,0.3
2019-01-31T00:18:50.448Z,0.3
2019-01-31T00:19:41.069Z,0.3
2019-01-31T00:20:31.112Z,0.3
2019-01-31T00:21:20.608Z,0.3
2019-01-31T00:22:11.511Z,0.3
2019-01-31T00:23:01.298Z,0.3
2019-01-31T00:23:51.615Z,0.3
2019-01-31T00:24:41.676Z,0.3
2019-01-31T00:25:31.183Z,0.3
2019-01-31T00:26:21.516Z,0.4
2019-01-31T00:27:11.293Z,0.3
2019-01-31T00:28:01.638Z,0.4
2019-01-31T00:28:51.958Z,0.4
2019-01-31T00:29:42.023Z,0.4
2019-01-31T00:30:31.803Z,0.4
2019-01-31T00:31:21.862Z,0.4
2019-01-31T00:32:11.704Z,0.4
2019-01-31T00:33:01.822Z,0.4
2019-01-31T00:33:52.041Z,0.4
2019-01-31T00:34:41.811Z,0.4
2019-01-31T00:35:32.148Z,0.4
2019-01-31T00:36:22.235Z,0.4
2019-01-31T00:37:12.267Z,0.4
2019-01-31T00:38:02.598Z,0.4
2019-01-31T00:38:58.968Z,0.4
2019-01-31T00:39:42.835Z,0.5
2019-01-31T00:40:32.595Z,0.5
2019-01-31T00:41:22.549Z,0.5
2019-01-31T00:42:12.620Z,0.5
2019-01-31T00:43:02.676Z,0.4
2019-01-31T00:43:52.997Z,0.5
2019-01-31T00:44:42.805Z,0.5
2019-01-31T00:45:32.844Z,0.5
2019-01-31T00:46:23.315Z,0.5
2019-01-31T00:47:13.342Z,0.5
2019-01-31T00:48:03.030Z,0.5
2019-01-31T00:48:53.072Z,0.5
2019-01-31T00:49:43.127Z,0.6
2019-01-31T00:50:33.217Z,0.6
2019-01-31T00:51:23.246Z,0.5
2019-01-31T00:52:13.577Z,0.6
2019-01-31T00:53:03.109Z,0.6
2019-01-31T00:53:53.154Z,0.6
2019-01-31T00:54:43.222Z,0.6
2019-01-31T00:55:33.821Z,0.6
2019-01-31T00:56:23.869Z,0.6
2019-01-31T00:57:13.929Z,0.6
2019-01-31T00:58:03.434Z,0.6
2019-01-31T00:58:53.770Z,0.6
2019-01-31T00:59:43.831Z,0.6
2019-01-31T01:00:33.896Z,0.6
2019-01-31T01:01:24.222Z,0.6
2019-01-31T01:02:13.739Z,0.6
2019-01-31T01:03:04.374Z,0.6
2019-01-31T01:03:54.142Z,0.6
2019-01-31T01:04:44.204Z,0.6
2019-01-31T01:05:33.968Z,0.6
2019-01-31T01:06:24.303Z,0.6
2019-01-31T01:07:14.634Z,0.6
2019-01-31T01:08:04.408Z,0.6
2019-01-31T01:08:54.744Z,0.6
2019-01-31T01:09:44.248Z,0.6
2019-01-31T01:10:34.586Z,0.6
2019-01-31T01:11:24.655Z,0.6
2019-01-31T01:12:14.738Z,0.6
2019-01-31T01:13:05.037Z,0.6
2019-01-31T01:13:54.260Z,0.6
2019-01-31T01:14:45.151Z,0.6
2019-01-31T01:15:34.708Z,0.7
2019-01-31T01:16:24.994Z,0.7
2019-01-31T01:17:15.413Z,0.7
2019-01-31T01:18:04.574Z,0.6
2019-01-31T01:18:55.174Z,0.7
2019-01-31T01:19:45.510Z,0.7
2019-01-31T01:20:35.037Z,0.7
2019-01-31T01:21:25.328Z,0.7
2019-01-31T01:22:15.681Z,0.7
2019-01-31T01:23:05.718Z,0.7
2019-01-31T01:23:55.518Z,0.7
2019-01-31T01:24:45.837Z,0.8
2019-01-31T01:25:35.642Z,0.7
2019-01-31T01:26:25.950Z,0.7
2019-01-31T01:27:16.015Z,0.7
2019-01-31T01:28:06.074Z,0.8
2019-01-31T01:28:56.172Z,0.8
2019-01-31T01:29:45.372Z,0.8
2019-01-31T01:30:35.972Z,0.8
2019-01-31T01:31:26.026Z,0.8
2019-01-31T01:32:15.809Z,0.8
2019-01-31T01:33:06.134Z,0.8
2019-01-31T01:33:55.924Z,0.8
2019-01-31T01:34:46.544Z,0.8
2019-01-31T01:35:36.039Z,0.8
2019-01-31T01:36:26.147Z,0.8
2019-01-31T01:37:16.147Z,0.8
2019-01-31T01:38:06.212Z,0.8
2019-01-31T01:38:56.532Z,0.8
2019-01-31T01:39:46.864Z,0.8
2019-01-31T01:40:36.945Z,0.8
2019-01-31T01:41:26.453Z,0.8
2019-01-31T01:42:16.499Z,0.8
2019-01-31T01:43:06.834Z,0.8
2019-01-31T01:43:57.000Z,0.8
2019-01-31T01:44:46.681Z,0.8
2019-01-31T01:45:37.280Z,0.8
2019-01-31T01:46:26.796Z,0.8
2019-01-31T01:47:16.573Z,0.7
2019-01-31T01:48:06.910Z,0.7
2019-01-31T01:48:57.523Z,0.7
2019-01-31T01:49:47.573Z,0.7
2019-01-31T01:50:37.628Z,0.6
2019-01-31T01:51:27.413Z,0.6
2019-01-31T01:52:17.738Z,0.6
2019-01-31T01:53:07.520Z,0.6
2019-01-31T01:53:57.585Z,0.6
2019-01-31T01:54:47.916Z,0.6
2019-01-31T01:55:37.702Z,0.6
2019-01-31T01:56:28.047Z,0.6
2019-01-31T01:57:17.543Z,0.6
2019-01-31T01:58:07.882Z,0.5
2019-01-31T01:58:58.213Z,0.5
2019-01-31T01:59:47.723Z,0.4
2019-01-31T02:00:38.377Z,0.4
2019-01-31T02:01:28.243Z,0.4
2019-01-31T02:02:18.440Z,0.4
2019-01-31T02:03:08.220Z,0.4
2019-01-31T02:03:58.017Z,0.4
2019-01-31T02:04:47.789Z,0.4
2019-01-31T02:05:38.122Z,0.4
2019-01-31T02:06:28.057Z,0.4
2019-01-31T02:07:18.930Z,0.3
2019-01-31T02:08:08.850Z,0.3
2019-01-31T02:08:58.902Z,0.3
2019-01-31T02:09:48.402Z,0.3
2019-01-31T02:10:38.738Z,0.3
2019-01-31T02:11:28.524Z,0.3
2019-01-31T02:12:19.140Z,0.3
2019-01-31T02:13:08.919Z,0.3
2019-01-31T02:13:59.254Z,0.2
2019-01-31T02:14:49.307Z,0.2
2019-01-31T02:15:39.366Z,0.2
2019-01-31T02:16:28.874Z,0.2
2019-01-31T02:17:19.207Z,0.2
2019-01-31T02:18:09.269Z,0.1
2019-01-31T02:18:59.311Z,0.1
2019-01-31T02:19:49.382Z,0.1
2019-01-31T02:20:39.436Z,0.1
2019-01-31T02:21:29.499Z,0.1
2019-01-31T02:22:19.549Z,0.1
2019-01-31T02:23:09.619Z,0.1
2019-01-31T02:23:59.676Z,0.1
2019-01-31T02:24:49.798Z,0.1
2019-01-31T02:25:40.060Z,0
2019-01-31T02:26:30.125Z,0
2019-01-31T02:27:19.901Z,0
2019-01-31T02:28:09.956Z,0
2019-01-31T02:28:59.746Z,0
2019-01-31T02:29:50.070Z,-0.1
2019-01-31T02:30:40.140Z,-0.1
2019-01-31T02:31:29.919Z,-0.1
2019-01-31T02:32:20.541Z,-0.1
2019-01-31T02:33:10.603Z,-0.1
2019-01-31T02:34:00.662Z,-0.1
2019-01-31T02:34:50.787Z,-0.1
2019-01-31T02:35:40.486Z,-0.1
2019-01-31T02:36:30.252Z,-0.2
2019-01-31T02:37:20.868Z,-0.2
2019-01-31T02:38:10.655Z,-0.2
2019-01-31T02:39:00.726Z,-0.3
2019-01-31T02:39:50.778Z,-0.2
2019-01-31T02:40:41.117Z,-0.3
2019-01-31T02:41:31.187Z,-0.3
2019-01-31T02:42:20.950Z,-0.3
2019-01-31T02:43:11.332Z,-0.3
2019-01-31T02:44:01.064Z,-0.3
2019-01-31T02:44:51.415Z,-0.3
2019-01-31T02:45:40.909Z,-0.3
2019-01-31T02:46:31.252Z,-0.3
2019-01-31T02:47:21.324Z,-0.3
2019-01-31T02:48:11.082Z,-0.4
2019-01-31T02:49:01.432Z,-0.4
2019-01-31T02:49:51.739Z,-0.4
2019-01-31T02:50:41.827Z,-0.4
2019-01-31T02:51:31.412Z,-0.4
2019-01-31T02:52:21.646Z,-0.4
2019-01-31T02:53:11.702Z,-0.4
2019-01-31T02:54:01.478Z,-0.4
2019-01-31T02:54:51.839Z,-0.4
2019-01-31T02:55:41.047Z,-0.5
2019-01-31T02:56:31.956Z,-0.6
2019-01-31T02:57:22.019Z,-0.6
2019-01-31T02:58:11.838Z,-0.6
2019-01-31T02:59:01.844Z,-0.6
2019-01-31T02:59:52.441Z,-0.6
2019-01-31T03:00:42.561Z,-0.6
2019-01-31T03:01:32.554Z,-0.6
2019-01-31T03:02:22.612Z,-0.6
2019-01-31T03:03:12.666Z,-0.6
2019-01-31T03:04:02.451Z,-0.6
2019-01-31T03:04:52.518Z,-0.6
2019-01-31T03:08:25.070Z,-0.7
2019-01-31T03:09:15.339Z,-0.6
2019-01-31T03:10:05.143Z,-0.7
2019-01-31T03:10:54.913Z,-0.7
2019-01-31T03:11:45.570Z,-0.7
2019-01-31T03:12:35.304Z,-0.7
2019-01-31T03:13:25.624Z,-0.7
2019-01-31T03:14:15.675Z,-0.7
2019-01-31T03:15:05.756Z,-0.7
2019-01-31T03:15:55.511Z,-0.7
2019-01-31T03:16:45.845Z,-0.7
2019-01-31T03:17:35.640Z,-0.7
2019-01-31T03:18:25.985Z,-0.7
2019-01-31T03:19:16.046Z,-0.7
2019-01-31T03:20:05.534Z,-0.7
2019-01-31T03:20:56.153Z,-0.7
2019-01-31T03:21:45.940Z,-0.7
2019-01-31T03:22:35.989Z,-0.7
2019-01-31T03:23:26.429Z,-0.7
2019-01-31T03:24:16.409Z,-0.8
2019-01-31T03:25:06.250Z,-0.8
2019-01-31T03:25:56.209Z,-0.8
2019-01-31T03:26:46.537Z,-0.8
2019-01-31T03:27:36.336Z,-0.8
2019-01-31T03:28:26.662Z,-0.8
2019-01-31T03:29:16.444Z,-0.8
2019-01-31T03:30:06.820Z,-0.8
2019-01-31T03:30:56.360Z,-0.8
2019-01-31T03:31:46.663Z,-0.8
2019-01-31T03:32:36.996Z,-0.8
2019-01-31T03:33:27.086Z,-0.8
2019-01-31T03:34:16.802Z,-0.8
2019-01-31T03:35:07.137Z,-0.8
2019-01-31T03:35:56.912Z,-0.8
2019-01-31T03:36:46.966Z,-0.8
2019-01-31T03:37:37.284Z,-0.8
2019-01-31T03:38:27.454Z,-0.8
2019-01-31T03:39:17.133Z,-0.7
2019-01-31T03:40:09.774Z,-0.7
2019-01-31T03:40:57.521Z,-0.7
2019-01-31T03:41:47.573Z,-0.7
2019-01-31T03:42:37.476Z,-0.7
2019-01-31T03:43:27.134Z,-0.6
2019-01-31T03:44:17.766Z,-0.6
2019-01-31T03:45:07.585Z,-0.6
2019-01-31T03:45:57.618Z,-0.6
2019-01-31T03:46:47.380Z,-0.6
2019-01-31T03:47:37.973Z,-0.6
2019-01-31T03:48:28.060Z,-0.6
2019-01-31T03:49:17.878Z,-0.6
2019-01-31T03:50:09.453Z,-0.6
2019-01-31T03:50:57.935Z,-0.6
2019-01-31T03:51:48.271Z,-0.6
2019-01-31T03:52:38.057Z,-0.6
2019-01-31T03:53:28.399Z,-0.6
2019-01-31T03:54:18.237Z,-0.6
2019-01-31T03:55:08.225Z,-0.5
2019-01-31T03:55:58.285Z,-0.5
2019-01-31T03:56:48.635Z,-0.4
2019-01-31T03:57:38.675Z,-0.4
2019-01-31T03:58:28.723Z,-0.4
2019-01-31T03:59:18.789Z,-0.4
2019-01-31T04:00:08.863Z,-0.4
2019-01-31T04:00:58.378Z,-0.4
2019-01-31T04:01:48.972Z,-0.4
2019-01-31T04:02:38.744Z,-0.4
2019-01-31T04:03:28.795Z,-0.4
2019-01-31T04:04:18.577Z,-0.4
2019-01-31T04:05:08.905Z,-0.4
2019-01-31T04:05:59.368Z,-0.4
2019-01-31T04:06:49.064Z,-0.3
2019-01-31T04:07:39.079Z,-0.3
2019-01-31T04:08:29.147Z,-0.3
2019-01-31T04:09:19.206Z,-0.3
2019-01-31T04:10:21.371Z,-0.3
2019-01-31T04:10:59.595Z,-0.3
2019-01-31T04:11:49.644Z,-0.3
2019-01-31T04:12:39.715Z,-0.3
2019-01-31T04:13:29.763Z,-0.3
2019-01-31T04:14:19.926Z,-0.3
2019-01-31T04:15:09.619Z,-0.2
2019-01-31T04:15:59.689Z,-0.2
2019-01-31T04:16:49.979Z,-0.2
2019-01-31T04:17:39.785Z,-0.2
2019-01-31T04:18:30.111Z,-0.2
2019-01-31T04:19:20.303Z,-0.2
2019-01-31T04:20:09.971Z,-0.2
2019-01-31T04:21:00.019Z,-0.2
2019-01-31T04:21:50.114Z,-0.1
2019-01-31T04:22:40.398Z,-0.1
2019-01-31T04:23:30.498Z,-0.1
2019-01-31T04:24:20.513Z,-0.1
2019-01-31T04:25:24.826Z,-0.1
2019-01-31T04:26:00.669Z,-0.1
2019-01-31T04:26:50.695Z,0
2019-01-31T04:27:40.478Z,-0.1
2019-01-31T04:28:32.711Z,-0.1
2019-01-31T04:29:20.610Z,0
2019-01-31T04:30:10.635Z,0
2019-01-31T04:31:01.035Z,0
2019-01-31T04:31:50.761Z,0.1
2019-01-31T04:32:41.200Z,0.1
2019-01-31T04:33:31.162Z,0.1
2019-01-31T04:34:21.215Z,0.1
2019-01-31T04:35:10.740Z,0.1
2019-01-31T04:36:01.061Z,0.1
2019-01-31T04:36:51.385Z,0.1
2019-01-31T04:37:41.459Z,0.1
2019-01-31T04:38:31.500Z,0.1
2019-01-31T04:39:21.010Z,0.1
2019-01-31T04:40:11.702Z,0.2
2019-01-31T04:41:01.668Z,0.2
2019-01-31T04:41:51.462Z,0.2
2019-01-31T04:42:41.867Z,0.2
2019-01-31T04:43:31.824Z,0.2
2019-01-31T04:44:21.075Z,0.2
2019-01-31T04:45:11.969Z,0.3
2019-01-31T04:46:01.467Z,0.3
2019-01-31T04:46:52.065Z,0.3
2019-01-31T04:47:42.103Z,0.3
2019-01-31T04:48:31.914Z,0.3
2019-01-31T04:49:21.952Z,0.3
2019-01-31T04:50:12.304Z,0.3
2019-01-31T04:51:02.484Z,0.3
2019-01-31T04:51:52.395Z,0.3
2019-01-31T04:52:42.451Z,0.3
2019-01-31T04:53:32.236Z,0.3
2019-01-31T04:54:22.319Z,0.4
2019-01-31T04:55:12.667Z,0.4
2019-01-31T04:56:02.151Z,0.4
2019-01-31T04:56:52.744Z,0.4
2019-01-31T04:57:42.529Z,0.4
2019-01-31T04:58:32.857Z,0.4
2019-01-31T04:59:22.358Z,0.4
2019-01-31T05:00:12.421Z,0.4
2019-01-31T05:01:02.491Z,0.4
2019-01-31T05:01:52.546Z,0.5
2019-01-31T05:02:43.158Z,0.5
2019-01-31T05:03:32.926Z,0.5
2019-01-31T05:04:23.043Z,0.5
2019-01-31T05:05:13.047Z,0.5
2019-01-31T05:06:03.148Z,0.5
2019-01-31T05:06:53.174Z,0.5
2019-01-31T05:07:43.523Z,0.6
2019-01-31T05:08:33.593Z,0.6
2019-01-31T05:09:23.624Z,0.6
2019-01-31T05:10:13.095Z,0.6
2019-01-31T05:11:03.435Z,0.6
2019-01-31T05:11:53.997Z,0.6
2019-01-31T05:12:43.589Z,0.6
2019-01-31T05:13:33.878Z,0.6
2019-01-31T05:14:23.974Z,0.6
2019-01-31T05:15:13.738Z,0.6
2019-01-31T05:16:06.438Z,0.6
2019-01-31T05:16:54.132Z,0.7
2019-01-31T05:17:44.286Z,0.7
2019-01-31T05:18:34.127Z,0.7
2019-01-31T05:19:24.296Z,0.7
2019-01-31T05:20:14.354Z,0.7
2019-01-31T05:21:04.435Z,0.7
2019-01-31T05:21:54.458Z,0.8
2019-01-31T05:22:44.301Z,0.7
2019-01-31T05:23:34.577Z,0.7
2019-01-31T05:24:24.349Z,0.7
2019-01-31T05:25:14.421Z,0.8
2019-01-31T05:26:04.767Z,0.8
2019-01-31T05:26:54.825Z,0.8
2019-01-31T05:27:44.587Z,0.8
2019-01-31T05:28:34.964Z,0.8
2019-01-31T05:29:24.969Z,0.8
2019-01-31T05:30:14.777Z,0.8
2019-01-31T05:31:04.844Z,0.8
2019-01-31T05:31:54.898Z,0.8
2019-01-31T05:32:45.229Z,0.8
2019-01-31T05:33:35.010Z,0.8
2019-01-31T05:34:25.061Z,0.8
2019-01-31T05:35:15.506Z,0.8
2019-01-31T05:36:05.103Z,0.9
2019-01-31T05:36:55.479Z,0.9
2019-01-31T05:37:45.699Z,0.9
2019-01-31T05:38:35.599Z,0.9
2019-01-31T05:39:25.090Z,0.9
2019-01-31T05:40:15.738Z,0.9
2019-01-31T05:41:05.504Z,0.9
2019-01-31T05:41:55.562Z,0.9
2019-01-31T05:42:45.631Z,0.9
2019-01-31T05:43:35.948Z,0.9
2019-01-31T05:44:25.913Z,0.9
2019-01-31T05:45:16.076Z,0.9
2019-01-31T05:46:06.118Z,0.9
2019-01-31T05:46:55.923Z,1
2019-01-31T05:47:46.400Z,0.9
2019-01-31T05:48:36.298Z,1
2019-01-31T05:49:26.113Z,1
2019-01-31T05:50:15.853Z,1
2019-01-31T05:51:06.451Z,1
2019-01-31T05:51:56.514Z,1
2019-01-31T05:52:46.591Z,1
2019-01-31T05:53:36.341Z,1
2019-01-31T05:54:26.700Z,1
2019-01-31T05:55:16.822Z,1
2019-01-31T05:56:06.887Z,1
2019-01-31T05:56:56.863Z,1
2019-01-31T05:57:46.926Z,1
2019-01-31T05:58:36.985Z,1
2019-01-31T05:59:26.835Z,1.1
2019-01-31T06:00:16.956Z,1.1
2019-01-31T06:01:07.141Z,1.1
2019-01-31T06:01:56.680Z,1.1
2019-01-31T06:02:47.251Z,1.1
2019-01-31T06:03:37.027Z,1.1
2019-01-31T06:04:27.157Z,1.1
2019-01-31T06:06:25.152Z,1.1
2019-01-31T06:07:15.199Z,1.1
2019-01-31T06:08:05.379Z,1.1
2019-01-31T06:08:55.422Z,1.1
2019-01-31T06:09:45.376Z,1.2
2019-01-31T06:10:35.990Z,1.2
2019-01-31T06:11:25.492Z,1.2
2019-01-31T06:12:15.563Z,1.2
2019-01-31T06:13:05.616Z,1.2
2019-01-31T06:13:55.786Z,1.3
2019-01-31T06:14:45.721Z,1.3
2019-01-31T06:15:35.501Z,1.3
2019-01-31T06:16:25.540Z,1.3
2019-01-31T06:17:15.890Z,1.3
2019-01-31T06:18:05.666Z,1.3
2019-01-31T06:18:55.826Z,1.4
2019-01-31T06:19:45.768Z,1.4
2019-01-31T06:20:35.588Z,1.4
2019-01-31T06:21:25.891Z,1.4
2019-01-31T06:22:16.217Z,1.4
2019-01-31T06:23:06.011Z,1.5
2019-01-31T06:23:56.333Z,1.5
2019-01-31T06:24:46.126Z,1.6
2019-01-31T06:25:36.184Z,1.6
2019-01-31T06:26:26.505Z,1.6
2019-01-31T06:27:16.283Z,1.6
2019-01-31T06:28:06.365Z,1.7
2019-01-31T06:28:56.696Z,1.7
2019-01-31T06:29:46.733Z,1.8
2019-01-31T06:30:36.598Z,1.8
2019-01-31T06:31:26.867Z,1.8
2019-01-31T06:32:16.645Z,1.9
2019-01-31T06:33:06.695Z,1.9
2019-01-31T06:33:57.123Z,2
2019-01-31T06:34:47.085Z,2.1
2019-01-31T06:35:36.877Z,2.1
2019-01-31T06:36:27.192Z,2.1
2019-01-31T06:37:16.418Z,2.2
2019-01-31T06:38:07.137Z,2.3
2019-01-31T06:38:57.110Z,2.3
2019-01-31T06:39:47.162Z,2.3
2019-01-31T06:40:37.475Z,2.4
2019-01-31T06:41:27.534Z,2.4
2019-01-31T06:42:17.302Z,2.5
2019-01-31T06:43:07.091Z,2.5
2019-01-31T06:43:57.704Z,2.6
2019-01-31T06:44:47.762Z,2.6
2019-01-31T06:45:37.542Z,2.6
2019-01-31T06:46:27.877Z,2.6
2019-01-31T06:47:17.937Z,2.7
2019-01-31T06:48:08.017Z,2.7
2019-01-31T06:48:57.512Z,2.8
2019-01-31T06:49:47.564Z,2.8
2019-01-31T06:50:38.161Z,2.8
2019-01-31T06:51:28.229Z,2.9
2019-01-31T06:52:18.276Z,2.9
2019-01-31T06:53:08.339Z,2.9
2019-01-31T06:53:58.397Z,2.9
2019-01-31T06:54:48.171Z,2.9
2019-01-31T06:55:38.223Z,3
2019-01-31T06:56:28.681Z,3
2019-01-31T06:57:18.329Z,3
2019-01-31T06:58:08.404Z,3
2019-01-31T06:58:58.454Z,3.1
2019-01-31T06:59:48.793Z,3.1
2019-01-31T07:00:38.842Z,3.1
2019-01-31T07:01:28.928Z,3.1
2019-01-31T07:02:18.980Z,3.1
2019-01-31T07:03:09.020Z,3.1
2019-01-31T07:03:59.070Z,3.1
2019-01-31T07:08:25.713Z,3.2
2019-01-31T07:09:00.600Z,3.2
2019-01-31T07:09:50.653Z,3.2
2019-01-31T07:10:40.980Z,3.3
2019-01-31T07:11:35.071Z,3.3
2019-01-31T07:12:21.093Z,3.3
2019-01-31T07:13:10.591Z,3.4
2019-01-31T07:14:00.940Z,3.4
2019-01-31T07:14:50.710Z,3.4
2019-01-31T07:15:40.767Z,3.5
2019-01-31T07:16:31.382Z,3.6
2019-01-31T07:17:21.175Z,3.6
2019-01-31T07:18:11.490Z,3.7
2019-01-31T07:19:01.567Z,3.8
2019-01-31T07:19:51.624Z,3.9
2019-01-31T07:20:41.412Z,4
2019-01-31T07:21:31.714Z,4.1
2019-01-31T07:22:21.785Z,4.2
2019-01-31T07:23:11.564Z,4.3
2019-01-31T07:24:02.027Z,4.4
2019-01-31T07:24:51.965Z,4.5
2019-01-31T07:25:42.009Z,4.6
2019-01-31T07:26:32.202Z,4.8
2019-01-31T07:27:22.137Z,4.9
2019-01-31T07:28:11.904Z,5.1
2019-01-31T07:29:01.677Z,5.3
2019-01-31T07:29:52.029Z,5.4
2019-01-31T07:30:42.347Z,5.6
2019-01-31T07:31:32.204Z,5.8
2019-01-31T07:32:22.189Z,6
2019-01-31T07:33:12.251Z,6.2
2019-01-31T07:34:02.052Z,6.4
2019-01-31T07:34:52.099Z,6.6
2019-01-31T07:35:42.588Z,6.7
2019-01-31T07:36:32.783Z,6.8
2019-01-31T07:37:22.641Z,7
2019-01-31T07:38:12.308Z,7.3
2019-01-31T07:39:02.656Z,7.4
2019-01-31T07:39:52.695Z,7.6
2019-01-31T07:40:42.486Z,7.9
2019-01-31T07:41:43.225Z,8.2
2019-01-31T07:42:22.598Z,8.6
2019-01-31T07:43:12.686Z,8.8
2019-01-31T07:44:03.000Z,9.2
2019-01-31T07:44:52.778Z,9.5
2019-01-31T07:45:43.109Z,9.9
2019-01-31T07:46:32.893Z,10.3
2019-01-31T07:47:23.237Z,10.8
2019-01-31T07:48:13.567Z,11.3
2019-01-31T07:49:03.068Z,11.9
2019-01-31T07:49:53.682Z,12.9
2019-01-31T07:50:43.468Z,14.1
2019-01-31T07:51:33.800Z,15.3
2019-01-31T07:52:23.565Z,16.6
2019-01-31T07:53:15.458Z,17.7
2019-01-31T07:54:03.698Z,18.6
2019-01-31T07:54:54.012Z,19.4
2019-01-31T07:55:44.087Z,20.3
2019-01-31T07:57:24.193Z,22.1
2019-01-31T07:58:14.304Z,23
2019-01-31T07:59:04.307Z,24.3
2019-01-31T07:59:54.362Z,25.3
2019-01-31T08:00:44.414Z,26.5
2019-01-31T08:01:34.484Z,27.6
2019-01-31T08:02:24.271Z,28.6
2019-01-31T08:03:14.040Z,29.4
2019-01-31T08:04:05.184Z,30.1
2019-01-31T08:04:54.710Z,30.9
2019-01-31T08:05:44.202Z,31.8
2019-01-31T08:06:34.117Z,32.6
2019-01-31T08:07:24.936Z,33.4
2019-01-31T08:08:14.949Z,34.4
2019-01-31T08:09:05.001Z,35.2
2019-01-31T08:09:57.674Z,36
2019-01-31T08:10:44.548Z,37.1
2019-01-31T08:11:35.172Z,37.6
2019-01-31T08:12:25.226Z,38.2
2019-01-31T08:13:15.016Z,38.6
2019-01-31T08:14:05.351Z,39.1
2019-01-31T08:14:55.401Z,39.6
2019-01-31T08:15:45.021Z,40.1
2019-01-31T08:16:35.511Z,40.6
2019-01-31T08:17:25.571Z,41.3
2019-01-31T08:18:15.648Z,42.1
2019-01-31T08:19:05.713Z,42.9
2019-01-31T08:19:55.460Z,43.6
2019-01-31T08:20:45.638Z,44.1
2019-01-31T08:21:35.858Z,44.4
2019-01-31T08:22:25.645Z,44.6
2019-01-31T08:23:15.980Z,44.4
2019-01-31T08:24:05.868Z,44.3
2019-01-31T08:24:55.268Z,44.2
2019-01-31T08:25:45.880Z,44.1
2019-01-31T08:26:36.208Z,43.9
2019-01-31T08:27:25.728Z,43.9
2019-01-31T08:28:16.330Z,43.9
2019-01-31T08:29:06.370Z,43.9
2019-01-31T08:29:56.158Z,43.8
2019-01-31T08:30:46.243Z,43.6
2019-01-31T08:31:36.547Z,43.6
2019-01-31T08:32:26.610Z,43.5
2019-01-31T08:33:16.119Z,43.4
2019-01-31T08:34:06.718Z,43.3
2019-01-31T08:34:56.235Z,43.2
2019-01-31T08:35:46.564Z,43.3
2019-01-31T08:36:36.895Z,43.4
2019-01-31T08:37:26.895Z,43.4
2019-01-31T08:38:16.738Z,43.6
2019-01-31T08:39:07.177Z,44
2019-01-31T08:39:57.140Z,44.6
2019-01-31T08:40:47.189Z,45.3
2019-01-31T08:41:36.960Z,45.9
2019-01-31T08:42:27.015Z,46.1
2019-01-31T08:43:16.803Z,46.4
2019-01-31T08:44:07.168Z,46.6
2019-01-31T08:44:57.464Z,46.8
2019-01-31T08:45:47.547Z,46.7
2019-01-31T08:46:37.299Z,46.6
2019-01-31T08:47:27.127Z,46.7
2019-01-31T08:48:17.704Z,46.9
2019-01-31T08:49:07.480Z,47.3
2019-01-31T08:49:57.824Z,47.9
2019-01-31T08:50:47.607Z,48.9
2019-01-31T08:51:37.781Z,50.1
2019-01-31T08:52:27.854Z,51.4
2019-01-31T08:53:17.761Z,52.8
2019-01-31T08:54:07.834Z,54
2019-01-31T08:54:58.165Z,55.2
2019-01-31T08:55:49.810Z,56.3
2019-01-31T08:56:37.729Z,57.4
2019-01-31T08:57:28.067Z,58.4
2019-01-31T08:58:18.414Z,59.4
2019-01-31T08:59:07.688Z,60.3
2019-01-31T08:59:57.951Z,61.3
2019-01-31T09:00:48.299Z,62.1
2019-01-31T09:01:38.683Z,63
2019-01-31T09:02:28.131Z,63.9
2019-01-31T09:03:18.736Z,64.8
2019-01-31T09:04:08.523Z,65.6
2019-01-31T09:04:58.858Z,66.3
2019-01-31T09:05:48.908Z,67
2019-01-31T09:06:38.973Z,67.7
2019-01-31T09:07:31.726Z,68.4
2019-01-31T09:08:18.611Z,69.1
2019-01-31T09:09:08.867Z,69.8
2019-01-31T09:09:59.208Z,70.3
2019-01-31T09:10:49.265Z,71.1
2019-01-31T09:11:38.565Z,73.3
2019-01-31T09:12:29.372Z,72.3
2019-01-31T09:13:19.433Z,68.6
2019-01-31T09:14:09.015Z,64.1
2019-01-31T09:14:59.272Z,56.4
2019-01-31T09:15:49.610Z,52.2
2019-01-31T09:16:39.672Z,50.3
2019-01-31T09:17:28.977Z,49.4
2019-01-31T09:18:19.543Z,49.1
2019-01-31T09:19:09.710Z,49.4
2019-01-31T09:19:59.625Z,50.3
2019-01-31T09:20:49.987Z,51.3
2019-01-31T09:21:39.327Z,52.5
2019-01-31T09:22:29.527Z,53.9
2019-01-31T09:23:20.135Z,55.4
2019-01-31T09:24:09.638Z,57.1
2019-01-31T09:25:50.322Z,60
2019-01-31T09:26:39.818Z,61.4
2019-01-31T09:27:29.867Z,62.4
2019-01-31T09:28:20.225Z,63.6
2019-01-31T09:29:10.532Z,64.6
2019-01-31T09:30:00.862Z,65.6
2019-01-31T09:30:50.672Z,66.4
2019-01-31T09:31:39.884Z,67
2019-01-31T09:32:30.791Z,67.4
2019-01-31T09:33:20.846Z,68.4
2019-01-31T09:34:10.611Z,65.6
2019-01-31T09:35:00.681Z,60.3
2019-01-31T09:35:50.729Z,57.1
2019-01-31T09:36:41.064Z,55.8
2019-01-31T09:37:30.844Z,54.9
2019-01-31T09:38:20.634Z,54.6
2019-01-31T09:39:11.258Z,54.8
2019-01-31T09:40:01.318Z,55.3
2019-01-31T09:40:51.092Z,55.8
2019-01-31T09:41:41.434Z,55.9
2019-01-31T09:42:31.471Z,55.7
2019-01-31T09:43:21.546Z,55.4
2019-01-31T09:44:11.606Z,55.2
2019-01-31T09:45:04.564Z,54.9
2019-01-31T09:45:51.437Z,54.6
2019-01-31T09:46:41.413Z,54.3
2019-01-31T09:47:34.259Z,54.1
2019-01-31T09:48:21.624Z,54
2019-01-31T09:49:11.680Z,53.9
2019-01-31T09:50:01.670Z,53.7
2019-01-31T09:50:51.500Z,53.4
2019-01-31T09:51:42.133Z,53
2019-01-31T09:52:32.178Z,52.6
2019-01-31T09:53:21.955Z,52.3
2019-01-31T09:55:02.423Z,51.7
2019-01-31T09:55:51.857Z,51.4
2019-01-31T09:56:42.215Z,51.2
2019-01-31T09:57:32.550Z,50.9
2019-01-31T09:58:22.712Z,50.6
2019-01-31T09:59:12.084Z,50.1
2019-01-31T10:00:02.475Z,49.9
2019-01-31T10:00:52.491Z,49.7
2019-01-31T10:01:42.828Z,49.4
2019-01-31T10:02:32.883Z,48.9
2019-01-31T10:03:22.672Z,48.6
2019-01-31T10:04:13.014Z,48.4
2019-01-31T10:05:03.071Z,48.3
2019-01-31T10:07:24.937Z,48.1
2019-01-31T10:08:15.067Z,47.8
2019-01-31T10:09:04.869Z,47.4
2019-01-31T10:09:55.094Z,47.1
2019-01-31T10:10:45.653Z,46.8
2019-01-31T10:11:34.516Z,46.5
2019-01-31T10:12:37.511Z,46.1
2019-01-31T10:13:15.453Z,45.7
2019-01-31T10:14:05.556Z,45.4
2019-01-31T10:14:55.897Z,45.1
2019-01-31T10:15:45.435Z,44.6
2019-01-31T10:16:35.779Z,44.2
2019-01-31T10:17:25.676Z,43.8
2019-01-31T10:18:15.951Z,43.5
2019-01-31T10:19:05.750Z,43.2
2019-01-31T10:19:56.076Z,42.9
2019-01-31T10:20:45.356Z,42.6
2019-01-31T10:21:36.331Z,42.3
2019-01-31T10:22:26.334Z,42.1
2019-01-31T10:23:16.293Z,41.8
2019-01-31T10:24:06.111Z,41.6
2019-01-31T10:24:57.335Z,41.3
2019-01-31T10:25:45.967Z,41.1
2019-01-31T10:26:36.263Z,40.8
2019-01-31T10:27:25.773Z,40.5
2019-01-31T10:28:16.368Z,40.3
2019-01-31T10:29:06.446Z,40
2019-01-31T10:29:56.565Z,39.8
2019-01-31T10:30:46.288Z,39.6
2019-01-31T10:31:36.611Z,39.4
2019-01-31T10:32:26.673Z,39.2
2019-01-31T10:33:16.461Z,39
2019-01-31T10:34:06.790Z,38.8
2019-01-31T10:34:56.848Z,38.5
2019-01-31T10:35:46.620Z,38.3
2019-01-31T10:36:36.690Z,38.1
2019-01-31T10:37:27.030Z,37.9
2019-01-31T10:38:17.092Z,37.6
2019-01-31T10:39:06.853Z,37.3
2019-01-31T10:39:57.195Z,37.1
2019-01-31T10:40:47.269Z,36.8
2019-01-31T10:41:37.037Z,36.6
2019-01-31T10:42:27.390Z,36.4
2019-01-31T10:43:16.890Z,36.3
2019-01-31T10:44:07.334Z,36.1
2019-01-31T10:44:57.553Z,35.9
2019-01-31T10:45:47.362Z,35.8
2019-01-31T10:46:37.520Z,35.6
2019-01-31T10:47:27.452Z,35.4
2019-01-31T10:48:17.517Z,35.3
2019-01-31T10:49:07.561Z,35.1
2019-01-31T10:49:57.909Z,34.9
2019-01-31T10:50:47.974Z,34.8
2019-01-31T10:51:37.754Z,34.7
2019-01-31T10:52:28.101Z,34.6
2019-01-31T10:53:18.224Z,34.4
2019-01-31T10:54:07.939Z,34.3
2019-01-31T10:54:58.266Z,34.2
2019-01-31T10:55:48.057Z,34.1
2019-01-31T10:56:38.206Z,33.9
2019-01-31T10:57:28.193Z,33.8
2019-01-31T10:58:18.624Z,33.6
2019-01-31T10:59:08.553Z,33.5
2019-01-31T10:59:58.609Z,33.4
2019-01-31T11:00:48.388Z,33.4
2019-01-31T11:01:38.731Z,33.3
2019-01-31T11:02:28.903Z,33.3
2019-01-31T11:03:18.288Z,33.2
2019-01-31T11:04:08.901Z,33
2019-01-31T11:04:58.970Z,32.9
2019-01-31T11:05:48.746Z,32.8
2019-01-31T11:06:39.093Z,32.7
2019-01-31T11:07:29.273Z,32.6
2019-01-31T11:08:18.731Z,32.6
2019-01-31T11:09:08.221Z,32.4
2019-01-31T11:09:58.007Z,32.4
2019-01-31T11:10:49.031Z,32.3
2019-01-31T11:11:39.428Z,32.3
2019-01-31T11:12:29.018Z,32.4
2019-01-31T11:13:19.080Z,32.4
2019-01-31T11:14:08.972Z,32.4
2019-01-31T11:14:59.182Z,32.4
2019-01-31T11:15:49.267Z,32.4
2019-01-31T11:16:39.789Z,32.4
2019-01-31T11:17:29.292Z,32.4
2019-01-31T11:18:19.357Z,32.4
2019-01-31T11:19:14.555Z,32.4
2019-01-31T11:19:59.742Z,32.4
2019-01-31T11:20:50.080Z,32.4
2019-01-31T11:21:40.165Z,32.3
2019-01-31T11:22:29.935Z,32.3
2019-01-31T11:23:19.977Z,32.2
2019-01-31T11:24:10.321Z,32.1
2019-01-31T11:25:00.359Z,32
2019-01-31T11:25:50.432Z,31.8
2019-01-31T11:26:39.734Z,31.8
2019-01-31T11:27:30.542Z,31.7
2019-01-31T11:28:20.324Z,31.6
2019-01-31T11:29:09.836Z,31.5
2019-01-31T11:30:00.569Z,31.4
2019-01-31T11:30:50.224Z,31.3
2019-01-31T11:31:40.841Z,31.1